sensor_id;sensor_type;location;lat;lon;timestamp;temperature;humidity
19180;DHT22;9722;48.754;8.868;2022-07-23T00:02:24;23.80;62.40
19180;DHT22;9722;48.754;8.868;2022-07-23T00:05:44;23.70;62.60
19180;DHT22;9722;48.754;8.868;2022-07-23T00:09:05;23.70;62.70
19180;DHT22;9722;48.754;8.868;2022-07-23T00:12:25;23.60;62.90
19180;DHT22;9722;48.754;8.868;2022-07-23T00:15:46;23.50;63.00
19180;DHT22;9722;48.754;8.868;2022-07-23T00:19:06;23.50;63.20
19180;DHT22;9722;48.754;8.868;2022-07-23T00:22:27;23.50;63.30
19180;DHT22;9722;48.754;8.868;2022-07-23T00:25:49;23.40;63.40
19180;DHT22;9722;48.754;8.868;2022-07-23T00:29:09;23.40;63.50
19180;DHT22;9722;48.754;8.868;2022-07-23T00:32:30;23.40;63.60
19180;DHT22;9722;48.754;8.868;2022-07-23T00:35:50;23.30;63.50
19180;DHT22;9722;48.754;8.868;2022-07-23T00:39:11;23.30;63.40
19180;DHT22;9722;48.754;8.868;2022-07-23T00:42:32;23.30;63.60
19180;DHT22;9722;48.754;8.868;2022-07-23T00:45:53;23.20;63.50
19180;DHT22;9722;48.754;8.868;2022-07-23T00:49:13;23.20;63.70
19180;DHT22;9722;48.754;8.868;2022-07-23T00:52:36;23.20;64.00
19180;DHT22;9722;48.754;8.868;2022-07-23T00:55:57;23.10;63.70
19180;DHT22;9722;48.754;8.868;2022-07-23T00:59:18;23.10;63.70
19180;DHT22;9722;48.754;8.868;2022-07-23T01:02:39;23.10;63.40
19180;DHT22;9722;48.754;8.868;2022-07-23T01:06:00;23.10;63.30
19180;DHT22;9722;48.754;8.868;2022-07-23T01:09:21;23.10;63.40
19180;DHT22;9722;48.754;8.868;2022-07-23T01:12:41;23.10;63.30
19180;DHT22;9722;48.754;8.868;2022-07-23T01:16:02;23.10;63.30
19180;DHT22;9722;48.754;8.868;2022-07-23T01:19:22;23.10;63.30
19180;DHT22;9722;48.754;8.868;2022-07-23T01:22:44;23.00;63.20
19180;DHT22;9722;48.754;8.868;2022-07-23T01:26:04;23.00;63.00
19180;DHT22;9722;48.754;8.868;2022-07-23T01:29:25;23.00;62.90
19180;DHT22;9722;48.754;8.868;2022-07-23T01:32:45;23.00;63.00
19180;DHT22;9722;48.754;8.868;2022-07-23T01:36:06;23.00;62.80
19180;DHT22;9722;48.754;8.868;2022-07-23T01:39:27;23.00;63.10
19180;DHT22;9722;48.754;8.868;2022-07-23T01:42:47;23.00;63.50
19180;DHT22;9722;48.754;8.868;2022-07-23T01:46:08;22.90;63.80
19180;DHT22;9722;48.754;8.868;2022-07-23T01:49:28;22.70;64.30
19180;DHT22;9722;48.754;8.868;2022-07-23T01:52:49;22.60;64.60
19180;DHT22;9722;48.754;8.868;2022-07-23T01:56:09;22.50;64.90
19180;DHT22;9722;48.754;8.868;2022-07-23T01:59:30;22.40;65.10
19180;DHT22;9722;48.754;8.868;2022-07-23T02:02:51;22.30;65.30
19180;DHT22;9722;48.754;8.868;2022-07-23T02:06:11;22.20;65.20
19180;DHT22;9722;48.754;8.868;2022-07-23T02:09:32;22.10;65.50
19180;DHT22;9722;48.754;8.868;2022-07-23T02:12:53;22.00;66.20
19180;DHT22;9722;48.754;8.868;2022-07-23T02:16:13;21.90;66.60
19180;DHT22;9722;48.754;8.868;2022-07-23T02:19:34;21.80;66.90
19180;DHT22;9722;48.754;8.868;2022-07-23T02:22:55;21.80;67.20
19180;DHT22;9722;48.754;8.868;2022-07-23T02:26:15;21.70;67.40
19180;DHT22;9722;48.754;8.868;2022-07-23T02:29:36;21.60;67.80
19180;DHT22;9722;48.754;8.868;2022-07-23T02:32:56;21.60;68.00
19180;DHT22;9722;48.754;8.868;2022-07-23T02:36:17;21.60;68.70
19180;DHT22;9722;48.754;8.868;2022-07-23T02:39:37;21.50;68.80
19180;DHT22;9722;48.754;8.868;2022-07-23T02:42:58;21.40;69.30
19180;DHT22;9722;48.754;8.868;2022-07-23T02:46:18;21.30;69.60
19180;DHT22;9722;48.754;8.868;2022-07-23T02:49:39;21.30;70.30
19180;DHT22;9722;48.754;8.868;2022-07-23T02:52:59;21.20;70.50
19180;DHT22;9722;48.754;8.868;2022-07-23T02:56:20;21.10;70.70
19180;DHT22;9722;48.754;8.868;2022-07-23T02:59:40;21.10;70.80
19180;DHT22;9722;48.754;8.868;2022-07-23T03:03:01;21.00;70.80
19180;DHT22;9722;48.754;8.868;2022-07-23T03:06:21;21.00;71.00
19180;DHT22;9722;48.754;8.868;2022-07-23T03:09:42;21.00;71.00
19180;DHT22;9722;48.754;8.868;2022-07-23T03:13:02;21.10;71.20
19180;DHT22;9722;48.754;8.868;2022-07-23T03:16:23;21.10;71.10
19180;DHT22;9722;48.754;8.868;2022-07-23T03:19:43;21.10;71.30
19180;DHT22;9722;48.754;8.868;2022-07-23T03:23:04;21.00;71.70
19180;DHT22;9722;48.754;8.868;2022-07-23T03:26:24;21.00;72.20
19180;DHT22;9722;48.754;8.868;2022-07-23T03:29:45;20.90;72.70
19180;DHT22;9722;48.754;8.868;2022-07-23T03:33:06;20.80;73.30
19180;DHT22;9722;48.754;8.868;2022-07-23T03:36:26;20.70;73.90
19180;DHT22;9722;48.754;8.868;2022-07-23T03:39:47;20.70;74.20
19180;DHT22;9722;48.754;8.868;2022-07-23T03:43:08;20.60;74.60
19180;DHT22;9722;48.754;8.868;2022-07-23T03:46:28;20.60;74.90
19180;DHT22;9722;48.754;8.868;2022-07-23T03:49:49;20.60;75.00
19180;DHT22;9722;48.754;8.868;2022-07-23T03:53:10;20.50;74.90
19180;DHT22;9722;48.754;8.868;2022-07-23T03:56:30;20.50;74.90
19180;DHT22;9722;48.754;8.868;2022-07-23T03:59:51;20.60;74.70
19180;DHT22;9722;48.754;8.868;2022-07-23T04:03:11;20.70;74.30
19180;DHT22;9722;48.754;8.868;2022-07-23T04:06:32;20.80;74.00
19180;DHT22;9722;48.754;8.868;2022-07-23T04:09:52;20.80;73.80
19180;DHT22;9722;48.754;8.868;2022-07-23T04:13:13;21.00;73.50
19180;DHT22;9722;48.754;8.868;2022-07-23T04:16:33;21.10;73.20
19180;DHT22;9722;48.754;8.868;2022-07-23T04:19:54;21.10;74.00
19180;DHT22;9722;48.754;8.868;2022-07-23T04:23:14;21.00;74.60
19180;DHT22;9722;48.754;8.868;2022-07-23T04:26:35;20.90;75.00
19180;DHT22;9722;48.754;8.868;2022-07-23T04:29:55;20.80;75.30
19180;DHT22;9722;48.754;8.868;2022-07-23T04:33:16;20.80;75.80
19180;DHT22;9722;48.754;8.868;2022-07-23T04:36:36;20.70;76.00
19180;DHT22;9722;48.754;8.868;2022-07-23T04:39:57;20.70;76.30
19180;DHT22;9722;48.754;8.868;2022-07-23T04:43:18;20.70;76.20
19180;DHT22;9722;48.754;8.868;2022-07-23T04:46:38;20.70;76.50
19180;DHT22;9722;48.754;8.868;2022-07-23T04:49:59;20.80;76.80
19180;DHT22;9722;48.754;8.868;2022-07-23T04:53:19;20.80;76.70
19180;DHT22;9722;48.754;8.868;2022-07-23T04:56:40;20.80;76.70
19180;DHT22;9722;48.754;8.868;2022-07-23T05:00:01;20.80;76.60
19180;DHT22;9722;48.754;8.868;2022-07-23T05:03:21;20.80;76.60
19180;DHT22;9722;48.754;8.868;2022-07-23T05:06:42;20.80;76.70
19180;DHT22;9722;48.754;8.868;2022-07-23T05:10:03;20.90;76.70
19180;DHT22;9722;48.754;8.868;2022-07-23T05:13:23;21.00;76.60
19180;DHT22;9722;48.754;8.868;2022-07-23T05:16:44;21.10;76.30
19180;DHT22;9722;48.754;8.868;2022-07-23T05:20:05;21.20;75.70
19180;DHT22;9722;48.754;8.868;2022-07-23T05:23:26;21.40;74.80
19180;DHT22;9722;48.754;8.868;2022-07-23T05:26:46;21.60;74.40
19180;DHT22;9722;48.754;8.868;2022-07-23T05:30:07;21.80;73.60
19180;DHT22;9722;48.754;8.868;2022-07-23T05:33:28;21.80;72.50
19180;DHT22;9722;48.754;8.868;2022-07-23T05:36:48;21.90;72.20
19180;DHT22;9722;48.754;8.868;2022-07-23T05:40:10;22.10;71.90
19180;DHT22;9722;48.754;8.868;2022-07-23T05:43:31;22.10;71.30
19180;DHT22;9722;48.754;8.868;2022-07-23T05:46:51;22.30;70.90
19180;DHT22;9722;48.754;8.868;2022-07-23T05:50:12;22.40;70.40
19180;DHT22;9722;48.754;8.868;2022-07-23T05:53:34;22.50;70.20
19180;DHT22;9722;48.754;8.868;2022-07-23T05:56:55;22.60;69.90
19180;DHT22;9722;48.754;8.868;2022-07-23T06:00:15;22.70;70.00
19180;DHT22;9722;48.754;8.868;2022-07-23T06:03:36;22.90;69.20
19180;DHT22;9722;48.754;8.868;2022-07-23T06:06:56;23.10;68.40
19180;DHT22;9722;48.754;8.868;2022-07-23T06:10:17;23.20;68.20
19180;DHT22;9722;48.754;8.868;2022-07-23T06:13:38;23.50;68.30
19180;DHT22;9722;48.754;8.868;2022-07-23T06:16:58;24.00;68.20
19180;DHT22;9722;48.754;8.868;2022-07-23T06:20:19;24.50;66.90
19180;DHT22;9722;48.754;8.868;2022-07-23T06:23:40;25.10;65.00
19180;DHT22;9722;48.754;8.868;2022-07-23T06:27:00;25.50;63.50
19180;DHT22;9722;48.754;8.868;2022-07-23T06:30:21;26.00;61.90
19180;DHT22;9722;48.754;8.868;2022-07-23T06:33:41;26.60;60.50
19180;DHT22;9722;48.754;8.868;2022-07-23T06:37:02;27.30;58.50
19180;DHT22;9722;48.754;8.868;2022-07-23T06:40:22;27.50;56.80
19180;DHT22;9722;48.754;8.868;2022-07-23T06:43:43;27.40;56.50
19180;DHT22;9722;48.754;8.868;2022-07-23T06:47:03;27.00;56.70
19180;DHT22;9722;48.754;8.868;2022-07-23T06:50:24;26.70;57.30
19180;DHT22;9722;48.754;8.868;2022-07-23T06:53:44;26.30;57.90
19180;DHT22;9722;48.754;8.868;2022-07-23T06:57:05;25.90;58.10
19180;DHT22;9722;48.754;8.868;2022-07-23T07:00:26;25.50;58.60
19180;DHT22;9722;48.754;8.868;2022-07-23T07:03:47;25.20;59.90
19180;DHT22;9722;48.754;8.868;2022-07-23T07:07:07;24.80;62.30
19180;DHT22;9722;48.754;8.868;2022-07-23T07:10:28;24.50;64.70
19180;DHT22;9722;48.754;8.868;2022-07-23T07:13:48;24.30;66.90
19180;DHT22;9722;48.754;8.868;2022-07-23T07:17:09;24.10;68.10
19180;DHT22;9722;48.754;8.868;2022-07-23T07:20:31;23.90;69.30
19180;DHT22;9722;48.754;8.868;2022-07-23T07:23:54;23.90;70.10
19180;DHT22;9722;48.754;8.868;2022-07-23T07:27:15;24.30;70.50
19180;DHT22;9722;48.754;8.868;2022-07-23T07:30:35;25.40;69.30
19180;DHT22;9722;48.754;8.868;2022-07-23T07:33:56;26.10;67.50
19180;DHT22;9722;48.754;8.868;2022-07-23T07:37:17;26.40;66.00
19180;DHT22;9722;48.754;8.868;2022-07-23T07:40:37;26.70;64.60
19180;DHT22;9722;48.754;8.868;2022-07-23T07:43:58;26.60;64.40
19180;DHT22;9722;48.754;8.868;2022-07-23T07:47:18;26.70;64.50
19180;DHT22;9722;48.754;8.868;2022-07-23T07:50:39;26.80;63.80
19180;DHT22;9722;48.754;8.868;2022-07-23T07:54:00;26.80;63.40
19180;DHT22;9722;48.754;8.868;2022-07-23T07:57:21;26.70;63.00
19180;DHT22;9722;48.754;8.868;2022-07-23T08:00:41;26.40;63.50
19180;DHT22;9722;48.754;8.868;2022-07-23T08:04:02;26.50;63.40
19180;DHT22;9722;48.754;8.868;2022-07-23T08:07:22;26.60;62.20
19180;DHT22;9722;48.754;8.868;2022-07-23T08:10:43;26.70;61.60
19180;DHT22;9722;48.754;8.868;2022-07-23T08:14:03;26.70;60.60
19180;DHT22;9722;48.754;8.868;2022-07-23T08:17:24;26.80;60.60
19180;DHT22;9722;48.754;8.868;2022-07-23T08:20:44;27.30;59.50
19180;DHT22;9722;48.754;8.868;2022-07-23T08:24:05;27.60;59.00
19180;DHT22;9722;48.754;8.868;2022-07-23T08:27:25;27.90;58.10
19180;DHT22;9722;48.754;8.868;2022-07-23T08:30:46;28.10;57.10
19180;DHT22;9722;48.754;8.868;2022-07-23T08:34:06;28.00;55.80
19180;DHT22;9722;48.754;8.868;2022-07-23T08:37:27;27.90;56.30
19180;DHT22;9722;48.754;8.868;2022-07-23T08:40:50;28.50;55.60
19180;DHT22;9722;48.754;8.868;2022-07-23T08:44:12;29.60;53.70
19180;DHT22;9722;48.754;8.868;2022-07-23T08:47:33;30.70;51.70
19180;DHT22;9722;48.754;8.868;2022-07-23T08:50:56;31.70;50.00
19180;DHT22;9722;48.754;8.868;2022-07-23T08:54:17;32.80;47.50
19180;DHT22;9722;48.754;8.868;2022-07-23T08:57:38;33.70;45.90
19180;DHT22;9722;48.754;8.868;2022-07-23T09:01:00;34.40;44.20
19180;DHT22;9722;48.754;8.868;2022-07-23T09:04:20;34.50;43.00
19180;DHT22;9722;48.754;8.868;2022-07-23T09:08:04;34.30;42.10
19180;DHT22;9722;48.754;8.868;2022-07-23T09:11:24;34.00;41.90
19180;DHT22;9722;48.754;8.868;2022-07-23T09:14:45;33.50;42.00
19180;DHT22;9722;48.754;8.868;2022-07-23T09:18:07;33.00;43.10
19180;DHT22;9722;48.754;8.868;2022-07-23T09:21:35;33.10;42.70
19180;DHT22;9722;48.754;8.868;2022-07-23T09:28:26;35.20;41.10
19180;DHT22;9722;48.754;8.868;2022-07-23T09:31:52;36.50;39.80
19180;DHT22;9722;48.754;8.868;2022-07-23T09:35:13;37.60;38.70
19180;DHT22;9722;48.754;8.868;2022-07-23T09:38:33;38.60;37.40
19180;DHT22;9722;48.754;8.868;2022-07-23T09:41:54;39.50;35.80
19180;DHT22;9722;48.754;8.868;2022-07-23T09:45:15;40.20;35.00
19180;DHT22;9722;48.754;8.868;2022-07-23T09:48:35;41.00;33.70
19180;DHT22;9722;48.754;8.868;2022-07-23T09:51:58;41.70;32.70
19180;DHT22;9722;48.754;8.868;2022-07-23T09:55:19;41.50;32.30
19180;DHT22;9722;48.754;8.868;2022-07-23T09:58:50;41.40;31.80
19180;DHT22;9722;48.754;8.868;2022-07-23T10:02:12;41.50;32.20
19180;DHT22;9722;48.754;8.868;2022-07-23T10:05:35;41.70;32.20
19180;DHT22;9722;48.754;8.868;2022-07-23T10:08:58;41.90;31.60
19180;DHT22;9722;48.754;8.868;2022-07-23T10:12:20;42.10;31.10
19180;DHT22;9722;48.754;8.868;2022-07-23T10:15:59;42.10;31.20
19180;DHT22;9722;48.754;8.868;2022-07-23T10:19:20;42.30;30.40
19180;DHT22;9722;48.754;8.868;2022-07-23T10:22:49;42.40;30.10
19180;DHT22;9722;48.754;8.868;2022-07-23T10:26:18;42.50;29.60
19180;DHT22;9722;48.754;8.868;2022-07-23T10:29:55;42.50;29.60
19180;DHT22;9722;48.754;8.868;2022-07-23T10:37:42;42.60;29.90
19180;DHT22;9722;48.754;8.868;2022-07-23T10:41:05;43.00;29.40
19180;DHT22;9722;48.754;8.868;2022-07-23T10:44:38;43.40;29.00
19180;DHT22;9722;48.754;8.868;2022-07-23T10:48:19;43.70;28.60
19180;DHT22;9722;48.754;8.868;2022-07-23T10:52:22;44.10;28.80
19180;DHT22;9722;48.754;8.868;2022-07-23T10:55:46;44.40;28.30
19180;DHT22;9722;48.754;8.868;2022-07-23T10:59:07;44.70;28.10
19180;DHT22;9722;48.754;8.868;2022-07-23T11:02:31;44.70;27.60
19180;DHT22;9722;48.754;8.868;2022-07-23T11:05:52;43.80;27.90
19180;DHT22;9722;48.754;8.868;2022-07-23T11:09:29;43.20;28.70
19180;DHT22;9722;48.754;8.868;2022-07-23T11:12:49;43.00;28.80
19180;DHT22;9722;48.754;8.868;2022-07-23T11:16:18;42.70;29.10
19180;DHT22;9722;48.754;8.868;2022-07-23T11:27:39;43.00;28.70
19180;DHT22;9722;48.754;8.868;2022-07-23T11:31:17;43.30;28.40
19180;DHT22;9722;48.754;8.868;2022-07-23T11:38:17;43.70;28.40
19180;DHT22;9722;48.754;8.868;2022-07-23T11:41:44;44.20;28.00
19180;DHT22;9722;48.754;8.868;2022-07-23T11:45:06;44.60;27.70
19180;DHT22;9722;48.754;8.868;2022-07-23T11:48:29;44.80;27.40
19180;DHT22;9722;48.754;8.868;2022-07-23T11:52:13;45.00;27.10
19180;DHT22;9722;48.754;8.868;2022-07-23T11:55:34;45.20;27.20
19180;DHT22;9722;48.754;8.868;2022-07-23T11:58:55;45.40;27.40
19180;DHT22;9722;48.754;8.868;2022-07-23T12:02:19;45.60;27.10
19180;DHT22;9722;48.754;8.868;2022-07-23T12:05:40;45.90;26.90
19180;DHT22;9722;48.754;8.868;2022-07-23T12:09:00;46.10;26.40
19180;DHT22;9722;48.754;8.868;2022-07-23T12:12:22;46.00;26.30
19180;DHT22;9722;48.754;8.868;2022-07-23T12:15:45;45.70;26.30
19180;DHT22;9722;48.754;8.868;2022-07-23T12:19:06;44.70;26.70
19180;DHT22;9722;48.754;8.868;2022-07-23T12:22:38;43.90;27.30
19180;DHT22;9722;48.754;8.868;2022-07-23T12:26:02;43.40;27.70
19180;DHT22;9722;48.754;8.868;2022-07-23T12:29:22;43.40;28.20
19180;DHT22;9722;48.754;8.868;2022-07-23T12:32:56;43.40;28.00
19180;DHT22;9722;48.754;8.868;2022-07-23T12:36:17;43.10;28.40
19180;DHT22;9722;48.754;8.868;2022-07-23T12:39:39;42.80;28.60
19180;DHT22;9722;48.754;8.868;2022-07-23T12:43:11;42.70;28.50
19180;DHT22;9722;48.754;8.868;2022-07-23T12:46:33;42.40;28.60
19180;DHT22;9722;48.754;8.868;2022-07-23T12:49:54;42.20;28.90
19180;DHT22;9722;48.754;8.868;2022-07-23T12:53:18;41.90;28.80
19180;DHT22;9722;48.754;8.868;2022-07-23T12:56:40;41.00;29.40
19180;DHT22;9722;48.754;8.868;2022-07-23T13:00:08;39.90;30.30
19180;DHT22;9722;48.754;8.868;2022-07-23T13:03:36;39.00;31.00
19180;DHT22;9722;48.754;8.868;2022-07-23T13:06:58;38.40;32.30
19180;DHT22;9722;48.754;8.868;2022-07-23T13:10:20;38.00;32.50
19180;DHT22;9722;48.754;8.868;2022-07-23T13:13:41;37.90;33.10
19180;DHT22;9722;48.754;8.868;2022-07-23T13:17:02;37.90;33.20
19180;DHT22;9722;48.754;8.868;2022-07-23T13:20:22;38.70;32.60
19180;DHT22;9722;48.754;8.868;2022-07-23T13:23:43;39.90;31.50
19180;DHT22;9722;48.754;8.868;2022-07-23T13:27:03;41.00;30.30
19180;DHT22;9722;48.754;8.868;2022-07-23T13:30:25;41.90;29.60
19180;DHT22;9722;48.754;8.868;2022-07-23T13:33:45;42.40;29.10
19180;DHT22;9722;48.754;8.868;2022-07-23T13:37:06;43.10;28.80
19180;DHT22;9722;48.754;8.868;2022-07-23T13:40:26;43.70;28.30
19180;DHT22;9722;48.754;8.868;2022-07-23T13:43:47;43.90;27.80
19180;DHT22;9722;48.754;8.868;2022-07-23T13:47:08;43.50;27.80
19180;DHT22;9722;48.754;8.868;2022-07-23T13:50:29;42.40;28.20
19180;DHT22;9722;48.754;8.868;2022-07-23T13:53:49;41.10;29.00
19180;DHT22;9722;48.754;8.868;2022-07-23T13:57:10;39.90;29.70
19180;DHT22;9722;48.754;8.868;2022-07-23T14:00:31;38.90;30.40
19180;DHT22;9722;48.754;8.868;2022-07-23T14:03:52;38.10;31.20
19180;DHT22;9722;48.754;8.868;2022-07-23T14:07:13;37.40;32.00
19180;DHT22;9722;48.754;8.868;2022-07-23T14:10:33;36.80;32.40
19180;DHT22;9722;48.754;8.868;2022-07-23T14:13:54;36.20;33.10
19180;DHT22;9722;48.754;8.868;2022-07-23T14:17:14;35.80;33.60
19180;DHT22;9722;48.754;8.868;2022-07-23T14:20:35;35.40;34.00
19180;DHT22;9722;48.754;8.868;2022-07-23T14:23:56;35.00;34.60
19180;DHT22;9722;48.754;8.868;2022-07-23T14:27:16;34.80;34.90
19180;DHT22;9722;48.754;8.868;2022-07-23T14:30:37;34.60;35.70
19180;DHT22;9722;48.754;8.868;2022-07-23T14:33:57;34.40;35.60
19180;DHT22;9722;48.754;8.868;2022-07-23T14:37:19;34.30;35.90
19180;DHT22;9722;48.754;8.868;2022-07-23T14:40:40;34.20;36.00
19180;DHT22;9722;48.754;8.868;2022-07-23T14:44:02;34.20;36.20
19180;DHT22;9722;48.754;8.868;2022-07-23T14:47:22;34.20;36.00
19180;DHT22;9722;48.754;8.868;2022-07-23T14:50:43;34.10;36.00
19180;DHT22;9722;48.754;8.868;2022-07-23T14:54:04;34.20;36.10
19180;DHT22;9722;48.754;8.868;2022-07-23T14:57:25;34.10;36.80
19180;DHT22;9722;48.754;8.868;2022-07-23T15:00:45;34.10;37.20
19180;DHT22;9722;48.754;8.868;2022-07-23T15:04:06;34.00;37.10
19180;DHT22;9722;48.754;8.868;2022-07-23T15:07:28;33.90;37.20
19180;DHT22;9722;48.754;8.868;2022-07-23T15:10:50;33.80;37.80
19180;DHT22;9722;48.754;8.868;2022-07-23T15:14:10;33.70;37.90
19180;DHT22;9722;48.754;8.868;2022-07-23T15:17:32;33.60;38.10
19180;DHT22;9722;48.754;8.868;2022-07-23T15:20:53;33.40;38.50
19180;DHT22;9722;48.754;8.868;2022-07-23T15:24:14;33.10;38.90
19180;DHT22;9722;48.754;8.868;2022-07-23T15:27:34;32.80;39.20
19180;DHT22;9722;48.754;8.868;2022-07-23T15:30:55;32.60;39.70
19180;DHT22;9722;48.754;8.868;2022-07-23T15:34:15;32.50;39.80
19180;DHT22;9722;48.754;8.868;2022-07-23T15:37:36;32.30;40.10
19180;DHT22;9722;48.754;8.868;2022-07-23T15:40:57;32.20;40.10
19180;DHT22;9722;48.754;8.868;2022-07-23T15:44:17;32.00;40.40
19180;DHT22;9722;48.754;8.868;2022-07-23T15:47:38;31.90;41.00
19180;DHT22;9722;48.754;8.868;2022-07-23T15:51:00;31.80;40.80
19180;DHT22;9722;48.754;8.868;2022-07-23T15:54:21;31.70;41.00
19180;DHT22;9722;48.754;8.868;2022-07-23T15:57:42;31.60;41.30
19180;DHT22;9722;48.754;8.868;2022-07-23T16:01:03;31.50;41.60
19180;DHT22;9722;48.754;8.868;2022-07-23T16:04:26;31.30;41.90
19180;DHT22;9722;48.754;8.868;2022-07-23T16:07:46;31.30;42.30
19180;DHT22;9722;48.754;8.868;2022-07-23T16:11:07;31.30;42.30
19180;DHT22;9722;48.754;8.868;2022-07-23T16:14:27;31.40;42.20
19180;DHT22;9722;48.754;8.868;2022-07-23T16:17:48;31.50;42.10
19180;DHT22;9722;48.754;8.868;2022-07-23T16:21:09;31.40;42.10
19180;DHT22;9722;48.754;8.868;2022-07-23T16:24:30;31.30;42.40
19180;DHT22;9722;48.754;8.868;2022-07-23T16:27:50;31.10;42.50
19180;DHT22;9722;48.754;8.868;2022-07-23T16:31:11;31.00;43.00
19180;DHT22;9722;48.754;8.868;2022-07-23T16:34:31;30.90;43.50
19180;DHT22;9722;48.754;8.868;2022-07-23T16:37:52;30.90;43.80
19180;DHT22;9722;48.754;8.868;2022-07-23T16:41:13;30.80;43.70
19180;DHT22;9722;48.754;8.868;2022-07-23T16:44:33;30.60;43.60
19180;DHT22;9722;48.754;8.868;2022-07-23T16:47:56;30.60;43.90
19180;DHT22;9722;48.754;8.868;2022-07-23T16:51:17;30.40;44.20
19180;DHT22;9722;48.754;8.868;2022-07-23T16:54:37;30.20;45.10
19180;DHT22;9722;48.754;8.868;2022-07-23T16:57:58;30.00;44.70
19180;DHT22;9722;48.754;8.868;2022-07-23T17:01:18;29.90;45.00
19180;DHT22;9722;48.754;8.868;2022-07-23T17:04:39;29.70;45.30
19180;DHT22;9722;48.754;8.868;2022-07-23T17:08:01;29.50;45.70
19180;DHT22;9722;48.754;8.868;2022-07-23T17:11:22;29.40;45.90
19180;DHT22;9722;48.754;8.868;2022-07-23T17:14:42;29.30;46.10
19180;DHT22;9722;48.754;8.868;2022-07-23T17:18:03;29.20;46.50
19180;DHT22;9722;48.754;8.868;2022-07-23T17:21:24;29.30;46.70
19180;DHT22;9722;48.754;8.868;2022-07-23T17:24:45;29.20;46.80
19180;DHT22;9722;48.754;8.868;2022-07-23T17:28:05;29.20;46.90
19180;DHT22;9722;48.754;8.868;2022-07-23T17:31:26;29.20;47.10
19180;DHT22;9722;48.754;8.868;2022-07-23T17:34:46;29.10;47.20
19180;DHT22;9722;48.754;8.868;2022-07-23T17:38:07;28.90;47.10
19180;DHT22;9722;48.754;8.868;2022-07-23T17:41:27;28.70;47.50
19180;DHT22;9722;48.754;8.868;2022-07-23T17:44:48;28.60;47.70
19180;DHT22;9722;48.754;8.868;2022-07-23T17:48:09;28.50;48.10
19180;DHT22;9722;48.754;8.868;2022-07-23T17:51:29;28.40;48.40
19180;DHT22;9722;48.754;8.868;2022-07-23T17:54:50;28.20;48.60
19180;DHT22;9722;48.754;8.868;2022-07-23T17:58:11;28.00;48.70
19180;DHT22;9722;48.754;8.868;2022-07-23T18:01:32;27.80;49.10
19180;DHT22;9722;48.754;8.868;2022-07-23T18:04:52;27.60;49.50
19180;DHT22;9722;48.754;8.868;2022-07-23T18:08:13;27.40;49.90
19180;DHT22;9722;48.754;8.868;2022-07-23T18:11:34;27.20;50.20
19180;DHT22;9722;48.754;8.868;2022-07-23T18:14:56;27.00;50.50
19180;DHT22;9722;48.754;8.868;2022-07-23T18:18:17;26.90;50.90
19180;DHT22;9722;48.754;8.868;2022-07-23T18:21:37;26.80;51.30
19180;DHT22;9722;48.754;8.868;2022-07-23T18:24:58;26.70;51.80
19180;DHT22;9722;48.754;8.868;2022-07-23T18:28:18;26.60;52.60
19180;DHT22;9722;48.754;8.868;2022-07-23T18:31:39;26.50;53.20
19180;DHT22;9722;48.754;8.868;2022-07-23T18:34:59;26.30;53.70
19180;DHT22;9722;48.754;8.868;2022-07-23T18:38:20;26.30;54.30
19180;DHT22;9722;48.754;8.868;2022-07-23T18:41:41;26.20;54.80
19180;DHT22;9722;48.754;8.868;2022-07-23T18:45:03;26.10;55.20
19180;DHT22;9722;48.754;8.868;2022-07-23T18:48:24;26.00;55.60
19180;DHT22;9722;48.754;8.868;2022-07-23T18:51:44;25.90;55.60
19180;DHT22;9722;48.754;8.868;2022-07-23T18:55:06;25.80;55.80
19180;DHT22;9722;48.754;8.868;2022-07-23T18:58:27;25.60;56.10
19180;DHT22;9722;48.754;8.868;2022-07-23T19:01:47;25.60;56.60
19180;DHT22;9722;48.754;8.868;2022-07-23T19:05:08;25.50;56.70
19180;DHT22;9722;48.754;8.868;2022-07-23T19:08:29;25.40;56.90
19180;DHT22;9722;48.754;8.868;2022-07-23T19:11:49;25.30;57.20
19180;DHT22;9722;48.754;8.868;2022-07-23T19:15:10;25.20;57.30
19180;DHT22;9722;48.754;8.868;2022-07-23T19:18:32;25.20;57.20
19180;DHT22;9722;48.754;8.868;2022-07-23T19:21:52;25.10;57.80
19180;DHT22;9722;48.754;8.868;2022-07-23T19:25:13;25.00;58.40
19180;DHT22;9722;48.754;8.868;2022-07-23T19:28:33;24.90;58.70
19180;DHT22;9722;48.754;8.868;2022-07-23T19:31:54;24.80;58.80
19180;DHT22;9722;48.754;8.868;2022-07-23T19:35:14;24.70;59.10
19180;DHT22;9722;48.754;8.868;2022-07-23T19:38:35;24.60;59.50
19180;DHT22;9722;48.754;8.868;2022-07-23T19:41:55;24.40;60.00
19180;DHT22;9722;48.754;8.868;2022-07-23T19:45:16;24.20;60.00
19180;DHT22;9722;48.754;8.868;2022-07-23T19:48:37;24.10;60.00
19180;DHT22;9722;48.754;8.868;2022-07-23T19:51:58;24.00;60.30
19180;DHT22;9722;48.754;8.868;2022-07-23T19:55:19;23.90;61.10
19180;DHT22;9722;48.754;8.868;2022-07-23T19:58:41;23.80;62.20
19180;DHT22;9722;48.754;8.868;2022-07-23T20:02:01;23.60;62.50
19180;DHT22;9722;48.754;8.868;2022-07-23T20:05:23;23.40;62.80
19180;DHT22;9722;48.754;8.868;2022-07-23T20:08:44;23.30;62.90
19180;DHT22;9722;48.754;8.868;2022-07-23T20:12:05;23.20;63.10
19180;DHT22;9722;48.754;8.868;2022-07-23T20:15:26;23.10;63.40
19180;DHT22;9722;48.754;8.868;2022-07-23T20:18:48;23.10;64.10
19180;DHT22;9722;48.754;8.868;2022-07-23T20:22:09;23.00;64.90
19180;DHT22;9722;48.754;8.868;2022-07-23T20:25:29;22.90;65.30
19180;DHT22;9722;48.754;8.868;2022-07-23T20:28:50;22.80;66.10
19180;DHT22;9722;48.754;8.868;2022-07-23T20:32:10;22.80;65.00
19180;DHT22;9722;48.754;8.868;2022-07-23T20:35:31;22.90;65.10
19180;DHT22;9722;48.754;8.868;2022-07-23T20:38:51;22.90;65.50
19180;DHT22;9722;48.754;8.868;2022-07-23T20:42:12;22.90;65.60
19180;DHT22;9722;48.754;8.868;2022-07-23T20:45:32;22.80;65.80
19180;DHT22;9722;48.754;8.868;2022-07-23T20:48:53;22.80;66.20
19180;DHT22;9722;48.754;8.868;2022-07-23T20:52:14;22.70;66.70
19180;DHT22;9722;48.754;8.868;2022-07-23T20:55:34;22.60;67.10
19180;DHT22;9722;48.754;8.868;2022-07-23T20:58:55;22.50;67.20
19180;DHT22;9722;48.754;8.868;2022-07-23T21:02:15;22.40;67.20
19180;DHT22;9722;48.754;8.868;2022-07-23T21:05:36;22.30;67.40
19180;DHT22;9722;48.754;8.868;2022-07-23T21:08:56;22.30;67.60
19180;DHT22;9722;48.754;8.868;2022-07-23T21:12:17;22.30;67.80
19180;DHT22;9722;48.754;8.868;2022-07-23T21:15:38;22.30;67.90
19180;DHT22;9722;48.754;8.868;2022-07-23T21:18:58;22.30;68.20
19180;DHT22;9722;48.754;8.868;2022-07-23T21:22:19;22.20;68.40
19180;DHT22;9722;48.754;8.868;2022-07-23T21:25:39;22.20;68.80
19180;DHT22;9722;48.754;8.868;2022-07-23T21:29:00;22.10;69.20
19180;DHT22;9722;48.754;8.868;2022-07-23T21:32:24;22.10;69.30
19180;DHT22;9722;48.754;8.868;2022-07-23T21:35:45;22.00;69.20
19180;DHT22;9722;48.754;8.868;2022-07-23T21:39:06;22.10;69.30
19180;DHT22;9722;48.754;8.868;2022-07-23T21:42:26;22.10;69.60
19180;DHT22;9722;48.754;8.868;2022-07-23T21:45:47;22.10;69.60
19180;DHT22;9722;48.754;8.868;2022-07-23T21:49:08;22.10;69.50
19180;DHT22;9722;48.754;8.868;2022-07-23T21:52:29;22.10;69.40